Terminal Aerodrome Forecast
Issued by NWS Omaha/Valley, NE

Home | Current Version | Previous Version | Text Only | Print | Product List | Glossary On
Versions: 1 2 3 4 5 6 7 8 9 10 11 12 13 14 15 16 17 18 19 20 21 22 23 24 25 26 27 28 29 30 31 32 33 34 35 36 37 38 39 40 41 42 43 44 45 46 47 48
000
FTUS43 KOAX 040520
TAFLNK
TAF
KLNK 040520Z 0406/0506 17004KT P6SM SCT040
      TEMPO 0406/0410 4SM HZ
     FM041000 17004KT 5SM HZ SKC
      TEMPO 0410/0413 3SM HZ
     FM041800 17010G16KT P6SM SCT250=

USA.gov is the U.S. government's official web portal to all federal, state and local government web resources and services.